Volgo-balt 229 — UHZF — position and weather

sailwx.info

Track history (hours):
 
Tides and Currents Weather Stations Pressure Air Temp Water Temp Dewpoint Dewpoint Depression Visibility Wind Speed Wind Dir Waves Ship Positions

Volgo-balt 229

Last reported at 2016-Jun-24 16:22 UTC. Time now 2016-Jun-26 17:23 UTC.
Position N 59°38' E 023°14'.

Length 113 m; draft 3.6 m.

Type: Ship. MMSI: 273336300.

Date/timePositionNaut miles runAvg speedWind from/ knotsBaromVisibWave heightAir tempDewpointWater temp
2016-Jun-24 16:22N 59°38' E 023°14'6 7.9
2016-Jun-24 15:33N 59°39' E 023°26'9 8.1
2016-Jun-24 14:25N 59°42' E 023°43'86 7.9
2016-Jun-24 03:32N 60°01' E 026°29'8 7.6
2016-Jun-24 02:25N 60°01' E 026°46'7 7.7
2016-Jun-24 01:33N 59°60' E 026°59'8 7.6
2016-Jun-24 00:32N 60°03' E 027°14'8 7.7
2016-Jun-23 23:33N 60°07' E 027°27'17 7.5
2016-Jun-23 21:19N 60°11' E 027°59'6 8.2
2016-Jun-23 20:33N 60°09' E 028°11'8 8.0
2016-Jun-23 19:33N 60°05' E 028°25'8 8.2
2016-Jun-23 18:33N 60°03' E 028°41'8 8.2
2016-Jun-23 17:33N 60°03' E 028°57'17 8.0
2016-Jun-23 15:27N 60°01' E 029°31'7 8.2
2016-Jun-23 14:33N 59°59' E 029°45'6 5.8
2016-Jun-23 13:28N 59°56' E 029°56'7 7.8
2016-Jun-23 12:33N 59°53' E 030°09'2 1.8
2016-Jun-23 11:31N 59°54' E 030°13'0 0.0
2016-Jun-23 10:31N 59°54' E 030°13'0 0.0
2016-Jun-23 09:31N 59°54' E 030°13'0 0.0
2016-Jun-23 08:31N 59°54' E 030°13'0 0.0
2016-Jun-23 07:31N 59°54' E 030°13'0 0.0
2016-Jun-23 05:31N 59°54' E 030°13'0 0.0
2016-Jun-23 04:31N 59°54' E 030°13'0 0.0
2016-Jun-23 03:31N 59°54' E 030°13'0 0.0
2016-Jun-23 02:31N 59°54' E 030°13'0 0.0
2016-Jun-23 01:32N 59°54' E 030°13'5 4.6
2016-Jun-23 00:33N 59°57' E 030°20'7 6.6
2016-Jun-22 23:33N 59°52' E 030°29'1 1.3
2016-Jun-22 22:31N 59°51' E 030°30'0 0.0
2016-Jun-22 21:28N 59°51' E 030°30'0 0.0
2016-Jun-22 20:28N 59°51' E 030°30'0 0.0
2016-Jun-22 19:31N 59°51' E 030°30'0 0.0
2016-Jun-22 18:31N 59°51' E 030°30'0 0.0
2016-Jun-22 17:31N 59°51' E 030°30'0 0.0
2016-Jun-22 16:31N 59°51' E 030°30'0 0.0
2016-Jun-22 15:31N 59°51' E 030°30'0 0.0
2016-Jun-22 14:16N 59°51' E 030°30'0 0.0
2016-Jun-22 13:22N 59°51' E 030°30'1 0.7
2016-Jun-22 12:33N 59°51' E 030°31'  
Track history (hours):
 
Tides and Currents Weather Stations Pressure Air Temp Water Temp Dewpoint Dewpoint Depression Visibility Wind Speed Wind Dir Waves Ship Positions

Volgo-balt 229

Last reported at 2016-Jun-24 16:22 UTC. Time now 2016-Jun-26 17:23 UTC.
Position N 59°38' E 023°14'.

Length 113 m; draft 3.6 m.

Type: Ship. MMSI: 273336300.

Date/timePositionNaut miles runAvg speedWind from/ knotsBaromVisibWave heightAir tempDewpointWater temp
2016-Jun-24 16:22N 59°38' E 023°14'6 7.9
2016-Jun-24 15:33N 59°39' E 023°26'9 8.1
2016-Jun-24 14:25N 59°42' E 023°43'86 7.9
2016-Jun-24 03:32N 60°01' E 026°29'8 7.6
2016-Jun-24 02:25N 60°01' E 026°46'7 7.7
2016-Jun-24 01:33N 59°60' E 026°59'8 7.6
2016-Jun-24 00:32N 60°03' E 027°14'8 7.7
2016-Jun-23 23:33N 60°07' E 027°27'17 7.5
2016-Jun-23 21:19N 60°11' E 027°59'6 8.2
2016-Jun-23 20:33N 60°09' E 028°11'8 8.0
2016-Jun-23 19:33N 60°05' E 028°25'8 8.2
2016-Jun-23 18:33N 60°03' E 028°41'8 8.2
2016-Jun-23 17:33N 60°03' E 028°57'17 8.0
2016-Jun-23 15:27N 60°01' E 029°31'7 8.2
2016-Jun-23 14:33N 59°59' E 029°45'6 5.8
2016-Jun-23 13:28N 59°56' E 029°56'7 7.8
2016-Jun-23 12:33N 59°53' E 030°09'2 1.8
2016-Jun-23 11:31N 59°54' E 030°13'0 0.0
2016-Jun-23 10:31N 59°54' E 030°13'0 0.0
2016-Jun-23 09:31N 59°54' E 030°13'0 0.0
2016-Jun-23 08:31N 59°54' E 030°13'0 0.0
2016-Jun-23 07:31N 59°54' E 030°13'0 0.0
2016-Jun-23 05:31N 59°54' E 030°13'0 0.0
2016-Jun-23 04:31N 59°54' E 030°13'0 0.0
2016-Jun-23 03:31N 59°54' E 030°13'0 0.0
2016-Jun-23 02:31N 59°54' E 030°13'0 0.0
2016-Jun-23 01:32N 59°54' E 030°13'5 4.6
2016-Jun-23 00:33N 59°57' E 030°20'7 6.6
2016-Jun-22 23:33N 59°52' E 030°29'1 1.3
2016-Jun-22 22:31N 59°51' E 030°30'0 0.0
2016-Jun-22 21:28N 59°51' E 030°30'0 0.0
2016-Jun-22 20:28N 59°51' E 030°30'0 0.0
2016-Jun-22 19:31N 59°51' E 030°30'0 0.0
2016-Jun-22 18:31N 59°51' E 030°30'0 0.0
2016-Jun-22 17:31N 59°51' E 030°30'0 0.0
2016-Jun-22 16:31N 59°51' E 030°30'0 0.0
2016-Jun-22 15:31N 59°51' E 030°30'0 0.0
2016-Jun-22 14:16N 59°51' E 030°30'0 0.0
2016-Jun-22 13:22N 59°51' E 030°30'1 0.7
2016-Jun-22 12:33N 59°51' E 030°31'  

Dump ship's entire track history